createdAt,value
2024-01-25T00:00:58.386Z,11.70
2024-01-25T00:03:25.448Z,11.70
2024-01-25T00:10:46.738Z,11.80
2024-01-25T00:13:13.615Z,11.80
2024-01-25T00:20:35.206Z,11.80
2024-01-25T00:23:02.093Z,11.70
2024-01-25T00:25:29.122Z,11.70
2024-01-25T00:27:55.965Z,11.70
2024-01-25T00:30:22.851Z,11.60
2024-01-25T00:35:19.036Z,11.70
2024-01-25T00:37:46.363Z,11.60
2024-01-25T00:40:14.827Z,11.80
2024-01-25T00:42:50.202Z,11.60
2024-01-25T00:45:17.600Z,11.60
2024-01-25T00:47:44.842Z,11.30
2024-01-25T00:50:12.981Z,11.60
2024-01-25T00:52:40.496Z,11.60
2024-01-25T00:55:09.151Z,11.60
2024-01-25T00:57:36.403Z,11.60
2024-01-25T01:00:04.147Z,11.60
2024-01-25T01:02:46.125Z,11.60
2024-01-25T01:05:14.583Z,11.60
2024-01-25T01:07:42.257Z,11.60
2024-01-25T01:10:10.461Z,11.40
2024-01-25T01:12:38.055Z,11.50
2024-01-25T01:15:05.918Z,11.60
2024-01-25T01:17:32.813Z,11.50
2024-01-25T01:19:59.761Z,11.60
2024-01-25T01:24:54.031Z,11.50
2024-01-25T01:27:22.110Z,11.60
2024-01-25T01:29:49.047Z,11.40
2024-01-25T01:32:15.823Z,11.50
2024-01-25T01:34:42.875Z,11.60
2024-01-25T01:39:37.587Z,11.50
2024-01-25T01:42:04.656Z,11.50
2024-01-25T01:44:31.445Z,11.50
2024-01-25T01:46:58.442Z,11.50
2024-01-25T01:49:25.670Z,11.50
2024-01-25T01:51:53.872Z,11.50
2024-01-25T01:54:20.962Z,11.50
2024-01-25T01:56:47.930Z,11.50
2024-01-25T01:59:17.077Z,11.50
2024-01-25T02:01:44.006Z,11.50
2024-01-25T02:04:11.339Z,11.20
2024-01-25T02:06:38.864Z,11.40
2024-01-25T02:09:07.859Z,11.50
2024-01-25T02:11:35.448Z,11.10
2024-01-25T02:16:29.625Z,11.50
2024-01-25T02:18:58.897Z,11.50
2024-01-25T02:21:26.029Z,11.40
2024-01-25T02:23:53.035Z,11.40
2024-01-25T02:26:20.010Z,11.50
2024-01-25T02:28:46.820Z,11.30
2024-01-25T02:31:13.696Z,11.40
2024-01-25T02:36:08.068Z,11.40
2024-01-25T02:38:34.840Z,11.40
2024-01-25T02:41:01.641Z,11.40
2024-01-25T02:43:28.656Z,11.40
2024-01-25T02:45:55.628Z,11.40
2024-01-25T02:48:22.552Z,11.30
2024-01-25T02:50:49.493Z,11.40
2024-01-25T02:53:16.305Z,11.40
2024-01-25T02:55:43.194Z,11.30
2024-01-25T02:58:10.026Z,11.40
2024-01-25T03:00:36.924Z,11.30
2024-01-25T03:03:04.061Z,11.30
2024-01-25T03:15:20.275Z,11.30
2024-01-25T03:20:14.998Z,11.20
2024-01-25T03:22:41.829Z,11.20
2024-01-25T03:25:10.233Z,11.20
2024-01-25T03:30:06.494Z,11.20
2024-01-25T03:32:35.378Z,11.30
2024-01-25T03:35:02.670Z,11.20
2024-01-25T03:37:29.649Z,11.20
2024-01-25T03:44:53.076Z,11.20
2024-01-25T03:52:14.701Z,11.20
2024-01-25T03:57:08.959Z,11.20
2024-01-25T04:06:58.878Z,11.20
2024-01-25T04:09:25.697Z,11.10
2024-01-25T04:19:15.075Z,11.10
2024-01-25T04:26:37.434Z,11.10
2024-01-25T04:38:53.555Z,11.00
2024-01-25T04:41:20.485Z,10.90
2024-01-25T04:51:17.995Z,11.00
2024-01-25T05:01:08.383Z,11.00
2024-01-25T05:03:35.459Z,11.00
2024-01-25T05:08:29.589Z,11.00
2024-01-25T05:10:56.404Z,10.90
2024-01-25T05:13:23.248Z,11.00
2024-01-25T05:15:50.197Z,10.90
2024-01-25T05:18:17.813Z,11.00
2024-01-25T05:20:44.633Z,10.90
2024-01-25T05:23:11.469Z,10.90
2024-01-25T05:28:06.411Z,10.90
2024-01-25T05:30:33.457Z,10.80
2024-01-25T05:40:23.752Z,11.00
2024-01-25T05:42:50.661Z,11.00
2024-01-25T05:45:20.708Z,11.00
2024-01-25T05:50:18.357Z,10.90
2024-01-25T05:55:15.143Z,11.00
2024-01-25T05:57:45.750Z,11.00
2024-01-25T06:00:18.067Z,11.00
2024-01-25T06:02:46.102Z,11.00
2024-01-25T06:05:13.722Z,10.90
2024-01-25T06:07:41.762Z,10.90
2024-01-25T06:10:09.782Z,11.00
2024-01-25T06:17:32.707Z,10.90
2024-01-25T06:22:26.997Z,11.00
2024-01-25T06:24:53.887Z,11.00
2024-01-25T06:27:20.700Z,11.00
2024-01-25T06:29:48.025Z,10.90
2024-01-25T06:32:22.531Z,11.00
2024-01-25T06:37:22.276Z,11.00
2024-01-25T06:39:49.254Z,10.90
2024-01-25T06:42:16.144Z,11.00
2024-01-25T06:47:11.394Z,10.90
2024-01-25T06:52:06.341Z,10.90
2024-01-25T06:54:33.223Z,10.90
2024-01-25T07:04:22.767Z,10.90
2024-01-25T07:11:45.573Z,11.00
2024-01-25T07:24:05.430Z,13.30
2024-01-25T07:31:28.985Z,11.10
2024-01-25T07:43:47.254Z,11.00
2024-01-25T07:46:16.381Z,11.10
2024-01-25T07:48:43.789Z,11.10
2024-01-25T07:51:15.081Z,11.10
2024-01-25T07:53:42.021Z,11.10
2024-01-25T07:56:12.256Z,11.10
2024-01-25T07:58:39.433Z,11.10
2024-01-25T08:01:07.349Z,11.00
2024-01-25T08:06:04.549Z,11.20
2024-01-25T08:08:31.515Z,11.20
2024-01-25T08:10:59.459Z,11.20
2024-01-25T08:13:26.315Z,11.20
2024-01-25T08:15:53.244Z,11.20
2024-01-25T08:18:24.125Z,11.20
2024-01-25T08:20:51.738Z,11.20
2024-01-25T08:23:19.882Z,11.20
2024-01-25T08:25:46.659Z,11.20
2024-01-25T08:28:13.572Z,11.20
2024-01-25T08:30:40.393Z,11.20
2024-01-25T08:33:07.297Z,11.20
2024-01-25T08:35:34.455Z,11.10
2024-01-25T08:40:30.748Z,11.20
2024-01-25T08:42:57.900Z,11.30
2024-01-25T08:47:53.357Z,11.20
2024-01-25T08:50:20.804Z,11.20
2024-01-25T08:52:48.938Z,11.20
2024-01-25T08:55:15.858Z,11.20
2024-01-25T08:57:42.856Z,11.20
2024-01-25T09:00:13.273Z,11.20
2024-01-25T09:02:40.527Z,11.20
2024-01-25T09:05:08.210Z,11.20
2024-01-25T09:07:35.304Z,11.10
2024-01-25T09:10:02.556Z,11.20
2024-01-25T09:14:57.042Z,11.20
2024-01-25T09:17:23.911Z,11.10
2024-01-25T09:19:52.184Z,11.20
2024-01-25T09:22:20.850Z,11.20
2024-01-25T09:24:48.314Z,11.10
2024-01-25T09:27:15.803Z,11.20
2024-01-25T09:29:43.823Z,11.20
2024-01-25T09:32:11.388Z,11.10
2024-01-25T09:34:40.776Z,11.10
2024-01-25T09:37:08.669Z,11.10
2024-01-25T09:39:37.077Z,11.00
2024-01-25T09:47:08.203Z,11.20
2024-01-25T09:49:35.838Z,11.10
2024-01-25T09:52:06.865Z,11.10
2024-01-25T09:54:37.273Z,11.20
2024-01-25T09:57:16.169Z,11.20
2024-01-25T09:59:43.617Z,11.20
2024-01-25T10:02:12.320Z,11.20
2024-01-25T10:04:39.655Z,11.20
2024-01-25T10:07:06.805Z,11.20
2024-01-25T10:09:43.934Z,11.20
2024-01-25T10:14:46.610Z,11.20
2024-01-25T10:17:13.433Z,11.20
2024-01-25T10:19:45.839Z,11.20
2024-01-25T10:22:14.622Z,11.20
2024-01-25T10:24:43.588Z,11.20
2024-01-25T10:29:39.150Z,11.20
2024-01-25T10:32:08.983Z,11.20
2024-01-25T10:34:38.081Z,11.20
2024-01-25T10:37:08.014Z,11.20
2024-01-25T10:42:02.937Z,11.20
2024-01-25T10:49:27.313Z,11.10
2024-01-25T10:51:55.600Z,11.30
2024-01-25T10:56:49.845Z,11.60
2024-01-25T10:59:19.081Z,11.40
2024-01-25T11:01:51.734Z,11.40
2024-01-25T11:04:20.535Z,11.10
2024-01-25T11:06:48.225Z,11.50
2024-01-25T11:09:22.143Z,11.40
2024-01-25T11:11:50.369Z,11.50
2024-01-25T11:14:17.972Z,11.50
2024-01-25T11:19:22.343Z,11.40
2024-01-25T11:21:51.767Z,11.60
2024-01-25T11:24:23.805Z,11.50
2024-01-25T11:26:51.091Z,11.60
2024-01-25T11:29:21.339Z,11.60
2024-01-25T11:31:51.040Z,11.60
2024-01-25T11:34:25.231Z,11.60
2024-01-25T11:39:19.827Z,11.60
2024-01-25T11:41:46.694Z,11.60
2024-01-25T11:44:14.848Z,11.70
2024-01-25T11:46:42.510Z,11.70
2024-01-25T11:49:09.836Z,11.70
2024-01-25T11:51:36.989Z,11.70
2024-01-25T11:54:07.872Z,11.80
2024-01-25T11:56:43.322Z,12.90
2024-01-25T11:59:11.922Z,11.80
2024-01-25T12:01:39.248Z,11.80
2024-01-25T12:04:06.538Z,11.90
2024-01-25T12:09:12.306Z,11.80
2024-01-25T12:11:42.430Z,13.90
2024-01-25T12:14:10.610Z,11.90
2024-01-25T12:16:38.923Z,11.90
2024-01-25T12:21:36.113Z,12.00
2024-01-25T12:26:36.760Z,12.00
2024-01-25T12:34:02.722Z,12.00
2024-01-25T12:38:57.217Z,12.00
2024-01-25T12:48:57.394Z,11.80
2024-01-25T12:51:25.393Z,11.80
2024-01-25T12:53:52.658Z,11.80
2024-01-25T12:58:46.938Z,11.80
2024-01-25T13:01:14.746Z,11.60
2024-01-25T13:03:44.341Z,11.80
2024-01-25T13:06:11.870Z,11.90
2024-01-25T13:08:38.712Z,11.80
2024-01-25T13:11:05.664Z,11.80
2024-01-25T13:20:57.030Z,11.80
2024-01-25T13:30:49.630Z,11.80
2024-01-25T13:33:16.768Z,11.70
2024-01-25T13:35:43.632Z,11.70
2024-01-25T13:38:15.352Z,11.70
2024-01-25T13:40:42.311Z,11.50
2024-01-25T13:43:09.474Z,11.80
2024-01-25T13:45:36.334Z,11.70
2024-01-25T13:48:03.321Z,11.70
2024-01-25T13:50:30.365Z,11.80
2024-01-25T13:52:57.145Z,11.70
2024-01-25T13:55:23.943Z,11.70
2024-01-25T13:57:50.827Z,11.70
2024-01-25T14:00:18.335Z,11.70
2024-01-25T14:02:46.393Z,11.70
2024-01-25T14:05:13.533Z,11.70
2024-01-25T14:07:40.389Z,11.70
2024-01-25T14:10:08.465Z,11.70
2024-01-25T14:12:35.485Z,11.70
2024-01-25T14:15:02.518Z,11.80
2024-01-25T14:17:29.443Z,11.70
2024-01-25T14:19:56.437Z,11.80
2024-01-25T14:22:29.850Z,11.70
2024-01-25T14:24:59.465Z,11.70
2024-01-25T14:27:27.961Z,11.70
2024-01-25T14:29:55.210Z,11.70
2024-01-25T14:32:23.070Z,11.70
2024-01-25T14:34:50.563Z,11.70
2024-01-25T14:37:17.588Z,11.60
2024-01-25T14:39:52.114Z,11.60
2024-01-25T14:42:29.717Z,11.60
2024-01-25T14:44:56.558Z,11.60
2024-01-25T14:47:23.871Z,11.50
2024-01-25T14:49:52.540Z,11.30
2024-01-25T14:52:19.555Z,11.50
2024-01-25T14:54:46.359Z,11.40
2024-01-25T14:59:40.492Z,11.40
2024-01-25T15:07:01.930Z,11.30
2024-01-25T15:09:28.732Z,11.20
2024-01-25T15:11:55.596Z,11.30
2024-01-25T15:14:22.446Z,11.30
2024-01-25T15:19:16.871Z,11.30
2024-01-25T15:21:43.804Z,11.20
2024-01-25T15:24:10.756Z,11.30
2024-01-25T15:26:44.766Z,11.20
2024-01-25T15:29:11.720Z,11.20
2024-01-25T15:41:30.873Z,11.20
2024-01-25T15:44:00.688Z,11.20
2024-01-25T15:46:27.479Z,11.20
2024-01-25T15:51:25.010Z,11.20
2024-01-25T15:56:19.146Z,11.20
2024-01-25T15:58:45.898Z,11.20
2024-01-25T16:03:40.522Z,11.20
2024-01-25T16:06:07.625Z,11.20
2024-01-25T16:08:37.446Z,14.60
2024-01-25T16:11:05.817Z,11.00
2024-01-25T16:13:32.590Z,11.10
2024-01-25T16:18:27.692Z,11.20
2024-01-25T16:20:55.321Z,11.20
2024-01-25T16:25:49.464Z,11.20
2024-01-25T16:33:10.931Z,11.20
2024-01-25T16:38:04.985Z,11.20
2024-01-25T16:42:59.014Z,11.20
2024-01-25T16:47:54.135Z,11.20
2024-01-25T16:50:21.127Z,11.20
2024-01-25T16:55:17.196Z,11.20
2024-01-25T16:57:44.183Z,11.20
2024-01-25T17:00:11.849Z,11.20
2024-01-25T17:02:38.858Z,11.20
2024-01-25T17:05:05.990Z,11.20
2024-01-25T17:07:32.996Z,11.20
2024-01-25T17:09:59.846Z,11.20
2024-01-25T17:12:26.612Z,11.10
2024-01-25T17:14:53.453Z,15.60
2024-01-25T17:17:22.587Z,11.20
2024-01-25T17:24:44.208Z,11.20
2024-01-25T17:27:11.321Z,11.10
2024-01-25T17:29:38.147Z,11.20
2024-01-25T17:32:05.511Z,11.30
2024-01-25T17:36:59.932Z,11.20
2024-01-25T17:39:27.358Z,11.20
2024-01-25T17:41:54.185Z,11.20
2024-01-25T17:44:21.021Z,11.00
2024-01-25T17:46:47.958Z,11.20
2024-01-25T17:49:14.985Z,11.10
2024-01-25T17:54:10.230Z,11.20
2024-01-25T17:56:41.552Z,11.10
2024-01-25T18:01:35.985Z,11.10
2024-01-25T18:06:30.114Z,11.10
2024-01-25T18:08:57.127Z,11.10
2024-01-25T18:11:23.906Z,11.50
2024-01-25T18:18:45.743Z,11.10
2024-01-25T18:23:40.287Z,11.30
2024-01-25T18:26:07.534Z,10.90
2024-01-25T18:28:34.434Z,11.10
2024-01-25T18:31:03.142Z,10.50
2024-01-25T18:33:30.140Z,11.00
2024-01-25T18:38:24.256Z,11.00
2024-01-25T18:43:19.838Z,10.90
2024-01-25T18:45:49.482Z,10.90
2024-01-25T18:50:44.609Z,10.90
2024-01-25T18:53:11.389Z,10.80
2024-01-25T18:55:38.690Z,10.80
2024-01-25T18:58:06.009Z,10.80
2024-01-25T19:00:33.262Z,10.80
2024-01-25T19:03:00.387Z,10.70
2024-01-25T19:05:27.760Z,10.70
2024-01-25T19:07:55.354Z,10.70
2024-01-25T19:10:22.209Z,10.70
2024-01-25T19:15:17.833Z,10.70
2024-01-25T19:20:13.254Z,10.70
2024-01-25T19:22:40.238Z,10.70
2024-01-25T19:25:07.540Z,10.60
2024-01-25T19:30:01.660Z,10.60
2024-01-25T19:32:28.398Z,10.70
2024-01-25T19:42:18.238Z,10.50
2024-01-25T19:49:39.773Z,10.60
2024-01-25T19:52:06.801Z,10.50
2024-01-25T19:54:33.620Z,10.50
2024-01-25T19:59:27.957Z,10.50
2024-01-25T20:01:55.227Z,10.50
2024-01-25T20:04:22.593Z,10.50
2024-01-25T20:06:49.831Z,10.40
2024-01-25T20:09:16.625Z,10.40
2024-01-25T20:14:10.781Z,10.40
2024-01-25T20:16:37.665Z,10.30
2024-01-25T20:23:59.268Z,10.30
2024-01-25T20:26:26.075Z,10.30
2024-01-25T20:33:48.644Z,10.30
2024-01-25T20:41:12.201Z,10.20
2024-01-25T20:43:39.516Z,10.80
2024-01-25T20:46:06.451Z,10.20
2024-01-25T20:48:34.069Z,10.20
2024-01-25T20:53:28.160Z,10.10
2024-01-25T20:55:54.908Z,10.00
2024-01-25T20:58:21.673Z,10.00
2024-01-25T21:03:16.657Z,9.90
2024-01-25T21:05:44.083Z,9.90
2024-01-25T21:08:11.792Z,9.90
2024-01-25T21:10:38.919Z,9.80
2024-01-25T21:13:06.925Z,9.70
2024-01-25T21:15:33.791Z,9.70
2024-01-25T21:30:17.784Z,9.40
2024-01-25T21:35:12.211Z,9.30
2024-01-25T21:37:39.033Z,9.30
2024-01-25T21:40:07.248Z,9.40
2024-01-25T21:42:37.952Z,9.20
2024-01-25T21:45:08.872Z,9.20
2024-01-25T21:47:37.450Z,9.20
2024-01-25T21:50:08.884Z,9.10
2024-01-25T21:52:36.181Z,9.10
2024-01-25T22:00:02.440Z,9.10
2024-01-25T22:07:24.766Z,9.00
2024-01-25T22:09:51.595Z,9.00
2024-01-25T22:12:18.886Z,8.90
2024-01-25T22:14:45.733Z,8.90
2024-01-25T22:17:12.498Z,9.00
2024-01-25T22:22:06.781Z,8.90
2024-01-25T22:24:33.652Z,8.90
2024-01-25T22:29:27.808Z,8.90
2024-01-25T22:56:27.552Z,8.70
2024-01-25T23:06:17.944Z,8.80
2024-01-25T23:08:44.854Z,8.60
2024-01-25T23:11:11.857Z,7.20
2024-01-25T23:13:39.091Z,8.40
2024-01-25T23:16:06.182Z,8.60
2024-01-25T23:21:00.589Z,8.50
2024-01-25T23:23:27.498Z,8.60
2024-01-25T23:25:54.280Z,8.60
2024-01-25T23:28:21.220Z,8.60
2024-01-25T23:30:48.105Z,8.60
2024-01-25T23:35:44.799Z,8.60
2024-01-25T23:38:11.626Z,8.60
2024-01-25T23:43:06.093Z,8.50
2024-01-25T23:45:33.199Z,8.50
2024-01-25T23:48:00.313Z,8.50
2024-01-25T23:50:27.513Z,8.40
2024-01-25T23:52:54.739Z,8.50
2024-01-25T23:57:48.910Z,8.20
